Terminal Aerodrome Forecast
Issued by NWS Binghamton, NY

Home | Current Version | Previous Version | Text Only | Print | Product List | Glossary On
Versions: 1 2 3 4 5 6 7 8 9 10 11 12 13 14 15 16 17 18 19 20
000
FTUS41 KBGM 201700
TAFAVP
TAF
KAVP 201739Z 2018/2118 22010G18KT P6SM SCT025 BKN035
     FM202200 18007KT P6SM SCT040 BKN250
     FM210400 17005KT P6SM OVC018
     FM211500 22008KT P6SM BKN040=

USA.gov is the U.S. government's official web portal to all federal, state and local government web resources and services.